Time;durP1;ratioP1;P1;durP2;ratioP2;P2;SDS_P1;SDS_P2;PMS_P1;PMS_P2;Temp;Humidity;BMP_temperature;BMP_pressure;BME280_temperature;BME280_humidity;BME280_pressure;Samples;Min_cycle;Max_cycle;Signal;HPM_P1;HPM_P2
2023/05/18 00:01:47;;;;;;;;;9.75;9.75;;;;;11.90;62.27;101636.25;5038428;28;45649;-65
2023/05/18 00:04:13;;;;;;;;;24.75;24.75;;;;;11.91;62.34;101643.25;5037148;28;45649;-66
2023/05/18 00:06:38;;;;;;;;;10.75;10.75;;;;;11.88;62.49;101638.09;5036058;28;45762;-67
2023/05/18 00:09:03;;;;;;;;;12.50;12.25;;;;;11.80;62.62;101633.91;5035302;28;45415;-72
2023/05/18 00:11:29;;;;;;;;;26.75;25.00;;;;;11.82;62.78;101631.19;5034242;28;45620;-70
2023/05/18 00:13:54;;;;;;;;;11.00;10.25;;;;;11.78;63.22;101638.34;5035293;28;45499;-64
2023/05/18 00:16:20;;;;;;;;;9.75;9.75;;;;;11.79;63.15;101633.91;5034933;28;45353;-72
2023/05/18 00:18:46;;;;;;;;;10.00;10.00;;;;;11.75;63.09;101638.44;5035161;28;45299;-64
2023/05/18 00:21:12;;;;;;;;;10.25;9.75;;;;;11.72;63.66;101635.00;5035315;28;45349;-66
2023/05/18 00:23:38;;;;;;;;;7.75;7.75;;;;;11.69;63.30;101643.88;5034538;28;46121;-67
2023/05/18 00:26:03;;;;;;;;;8.00;8.00;;;;;11.62;63.60;101629.13;5034672;28;45449;-63
2023/05/18 00:28:29;;;;;;;;;7.25;7.25;;;;;11.61;63.38;101630.03;5050295;28;45368;-72
2023/05/18 00:30:55;;;;;;;;;9.25;9.25;;;;;11.62;63.83;101629.13;5035720;28;45393;-80
2023/05/18 00:33:21;;;;;;;;;7.00;7.00;;;;;11.55;63.67;101620.53;5036554;28;46293;-79
2023/05/18 00:35:47;;;;;;;;;5.50;5.50;;;;;11.53;64.12;101624.97;5036316;28;45324;-71
2023/05/18 00:38:14;;;;;;;;;11.75;11.25;;;;;11.49;64.42;101626.81;5043347;28;45210;-64
2023/05/18 00:40:40;;;;;;;;;8.00;8.00;;;;;11.44;64.53;101617.31;5039826;28;45493;-76
2023/05/18 00:43:05;;;;;;;;;7.00;7.00;;;;;11.40;64.97;101616.53;5036477;28;46064;-73
2023/05/18 00:45:31;;;;;;;;;8.75;8.75;;;;;11.35;64.90;101613.16;5038653;28;45265;-79
2023/05/18 00:47:56;;;;;;;;;8.00;8.00;;;;;11.32;65.20;101607.97;5037096;28;45449;-81
2023/05/18 00:50:21;;;;;;;;;7.00;6.50;;;;;11.33;65.14;101628.13;5040923;28;45463;-80
2023/05/18 00:52:47;;;;;;;;;10.00;10.00;;;;;11.31;65.38;101622.03;5036315;28;46566;-76
2023/05/18 00:55:13;;;;;;;;;6.50;6.50;;;;;11.30;65.70;101629.09;5036120;28;45272;-75
2023/05/18 00:57:43;;;;;;;;;8.00;8.00;;;;;11.23;65.25;101617.84;5039384;28;45385;-85
2023/05/18 01:00:12;;;;;;;;;7.50;7.50;;;;;11.24;65.90;101616.09;5039570;28;45415;-84
2023/05/18 01:02:41;;;;;;;;;7.75;7.75;;;;;11.21;65.97;101630.19;5038083;28;45358;-84
2023/05/18 01:05:10;;;;;;;;;8.50;8.50;;;;;11.20;65.91;101627.63;5038951;28;45265;-83
2023/05/18 01:07:38;;;;;;;;;7.25;7.25;;;;;11.11;66.95;101623.44;5038649;28;45358;-83
2023/05/18 01:10:05;;;;;;;;;8.00;8.00;;;;;11.12;67.11;101627.81;5038519;28;45532;-79
2023/05/18 01:12:44;;;;;;;;;6.75;6.75;;;;;11.07;66.52;101627.06;5038704;28;45676;-81
2023/05/18 01:15:24;;;;;;;;;7.50;7.50;;;;;11.06;66.69;101628.81;5038348;28;45497;-80
2023/05/18 01:18:04;;;;;;;;;9.00;9.00;;;;;11.06;67.22;101625.31;5037374;28;45379;-77
2023/05/18 01:20:45;;;;;;;;;7.00;7.00;;;;;11.01;67.28;101627.22;5037081;28;45584;-76
2023/05/18 01:23:43;;;;;;;;;7.00;7.00;;;;;10.98;67.44;101625.50;5037852;28;46644;-78
2023/05/18 01:26:30;;;;;;;;;6.75;6.75;;;;;10.95;68.49;101621.19;5037890;28;45332;-81
2023/05/18 01:29:01;;;;;;;;;8.25;8.25;;;;;10.93;68.14;101622.13;5038603;28;45393;-73
2023/05/18 01:31:27;;;;;;;;;8.25;7.50;;;;;10.93;68.30;101628.28;5039964;28;45543;-78
2023/05/18 01:33:53;;;;;;;;;11.00;9.00;;;;;10.90;69.08;101623.09;5039216;28;45335;-76
2023/05/18 01:36:18;;;;;;;;;8.75;8.75;;;;;10.88;69.16;101626.63;5037173;28;45327;-80
2023/05/18 01:38:44;;;;;;;;;8.00;8.00;;;;;10.84;68.87;101628.50;5038759;28;45469;-71
2023/05/18 01:41:22;;;;;;;;;7.50;7.50;;;;;10.84;69.13;101625.88;5038214;28;45584;-80
2023/05/18 01:44:19;;;;;;;;;9.25;9.25;;;;;10.82;69.25;101632.94;5040216;28;46664;-73
2023/05/18 01:46:50;;;;;;;;;10.25;10.25;;;;;10.75;69.87;101621.69;5047543;28;45213;-73
2023/05/18 01:49:31;;;;;;;;;9.75;8.00;;;;;10.72;69.78;101618.28;5048209;28;45259;-72
2023/05/18 01:52:01;;;;;;;;;7.75;7.75;;;;;10.71;70.71;101627.91;5045214;28;45462;-75
2023/05/18 01:54:29;;;;;;;;;9.50;8.50;;;;;10.68;70.08;101628.00;5037969;28;46291;-77
2023/05/18 01:56:56;;;;;;;;;7.50;7.50;;;;;10.64;70.30;101621.97;5038304;28;45324;-79
2023/05/18 01:59:22;;;;;;;;;6.75;6.75;;;;;10.61;71.01;101623.78;5038822;28;45269;-78
2023/05/18 02:01:48;;;;;;;;;8.00;8.00;;;;;10.64;70.42;101621.97;5040180;28;45244;-80
2023/05/18 02:04:13;;;;;;;;;7.00;7.00;;;;;10.62;71.08;101622.88;5037314;28;48197;-80
2023/05/18 02:06:39;;;;;;;;;8.75;8.75;;;;;10.61;71.25;101624.66;5036905;28;46045;-77
2023/05/18 02:09:04;;;;;;;;;9.00;9.00;;;;;10.57;71.55;101622.13;5037019;28;45433;-82
2023/05/18 02:11:30;;;;;;;;;7.75;7.75;;;;;10.55;71.40;101626.56;5038239;28;45452;-81
2023/05/18 02:13:56;;;;;;;;;9.25;9.25;;;;;10.51;71.74;101620.47;5039158;28;45395;-79
2023/05/18 02:16:21;;;;;;;;;9.25;8.75;;;;;10.53;71.82;101623.94;5039269;28;45379;-72
2023/05/18 02:18:47;;;;;;;;;8.50;8.00;;;;;10.52;71.75;101623.09;5038597;28;45320;-75
2023/05/18 02:21:12;;;;;;;;;9.00;9.00;;;;;10.48;71.81;101618.81;5039347;28;45507;-68
2023/05/18 02:23:40;;;;;;;;;8.50;8.50;;;;;10.47;71.68;101614.44;5053126;28;46122;-82
2023/05/18 02:26:05;;;;;;;;;7.50;7.50;;;;;10.44;72.21;101626.78;5038412;28;45184;-74
2023/05/18 02:28:30;;;;;;;;;11.75;11.75;;;;;10.40;73.00;101620.75;5037563;28;45456;-75
2023/05/18 02:31:10;;;;;;;;;8.00;8.00;;;;;10.34;72.21;101632.22;5037239;28;45314;-72
2023/05/18 02:33:39;;;;;;;;;10.00;10.00;;;;;10.28;72.52;101624.47;5035571;28;48198;-68
2023/05/18 02:36:12;;;;;;;;;8.50;8.50;;;;;10.32;72.85;101631.41;5036688;28;45303;-75
2023/05/18 02:38:39;;;;;;;;;9.00;9.00;;;;;10.30;72.47;101632.34;5036836;28;45443;-72
2023/05/18 02:41:09;;;;;;;;;12.25;12.25;;;;;10.24;72.91;101625.44;5036770;28;45389;-67
2023/05/18 02:43:35;;;;;;;;;9.00;9.00;;;;;10.26;72.63;101639.41;5035381;28;46243;-76
2023/05/18 02:46:01;;;;;;;;;8.00;8.00;;;;;10.21;72.80;101633.41;5036714;28;45422;-78
2023/05/18 02:48:27;;;;;;;;;9.75;9.75;;;;;10.22;73.10;101640.38;5036876;28;45357;-65
2023/05/18 02:50:53;;;;;;;;;8.00;8.00;;;;;10.23;72.70;101636.84;5037546;28;45422;-72
2023/05/18 02:53:19;;;;;;;;;9.00;9.00;;;;;10.24;72.81;101630.69;5038038;28;46611;-72
2023/05/18 02:55:45;;;;;;;;;12.75;11.00;;;;;10.25;73.75;101632.44;5053753;28;45425;-63
2023/05/18 02:58:12;;;;;;;;;8.00;8.00;;;;;10.21;72.94;101633.41;5037668;28;45381;-69
2023/05/18 03:00:38;;;;;;;;;9.50;9.50;;;;;10.20;73.22;101632.56;5035638;28;45544;-74
2023/05/18 03:03:03;;;;;;;;;11.25;11.25;;;;;10.18;73.21;101623.81;5037054;28;46092;-65
2023/05/18 03:05:28;;;;;;;;;9.50;9.50;;;;;10.18;73.29;101628.22;5037518;28;45571;-65
2023/05/18 03:07:54;;;;;;;;;11.25;11.25;;;;;10.16;73.68;101630.00;5038363;28;45361;-63
2023/05/18 03:10:21;;;;;;;;;10.00;10.00;;;;;10.11;74.20;101622.22;5038939;28;45295;-64
2023/05/18 03:12:47;;;;;;;;;10.00;10.00;;;;;10.09;74.01;101630.13;5035657;28;47263;-63
2023/05/18 03:15:15;;;;;;;;;11.75;11.75;;;;;10.07;73.76;101628.41;5052461;28;45551;-63
2023/05/18 03:17:41;;;;;;;;;9.75;9.75;;;;;10.05;73.58;101623.22;5051467;28;45414;-64
2023/05/18 03:20:09;;;;;;;;;12.25;12.25;;;;;9.88;73.24;101599.06;5036191;28;45399;-63
2023/05/18 03:22:35;;;;;;;;;11.50;11.25;;;;;9.96;74.22;101626.03;5035964;28;45481;-63
2023/05/18 03:25:01;;;;;;;;;10.25;10.25;;;;;9.95;74.15;101621.69;5035633;28;45368;-66
2023/05/18 03:27:26;;;;;;;;;9.75;9.75;;;;;9.86;74.43;101614.84;5034723;28;45374;-69
2023/05/18 03:29:52;;;;;;;;;10.50;10.25;;;;;9.88;74.54;101606.94;5037133;28;45302;-63
2023/05/18 03:32:18;;;;;;;;;9.75;9.75;;;;;9.98;74.65;101624.25;5037595;28;47079;-67
2023/05/18 03:34:46;;;;;;;;;10.75;10.75;;;;;9.98;74.67;101626.00;5037589;28;45320;-66
2023/05/18 03:37:12;;;;;;;;;10.75;10.75;;;;;9.91;75.02;101617.38;5036303;28;45364;-64
2023/05/18 03:39:37;;;;;;;;;11.25;11.25;;;;;9.78;75.72;101588.72;5036189;28;45529;-63
2023/05/18 03:42:03;;;;;;;;;12.25;12.25;;;;;9.95;74.66;101613.78;5034141;28;46082;-64
2023/05/18 03:44:28;;;;;;;;;10.00;10.00;;;;;9.97;75.03;101622.50;5035491;28;45276;-63
2023/05/18 03:46:54;;;;;;;;;10.50;10.50;;;;;9.96;75.01;101614.66;5035830;28;45444;-69
2023/05/18 03:49:19;;;;;;;;;10.25;10.00;;;;;9.93;74.89;101619.06;5037312;28;45687;-69
2023/05/18 03:51:44;;;;;;;;;11.25;11.25;;;;;9.90;74.79;101613.03;5037262;28;45443;-68
2023/05/18 03:54:10;;;;;;;;;12.00;12.00;;;;;9.91;74.79;101610.34;5035596;28;45332;-65
2023/05/18 03:56:35;;;;;;;;;13.75;13.25;;;;;9.88;75.14;101620.06;5041656;28;45345;-68
2023/05/18 03:59:00;;;;;;;;;10.00;10.00;;;;;9.84;75.08;101610.53;5044584;28;45578;-80
2023/05/18 04:01:29;;;;;;;;;11.50;11.50;;;;;9.88;75.07;101613.03;5044203;28;59030;-66
2023/05/18 04:03:55;;;;;;;;;9.50;9.50;;;;;9.88;75.09;101620.06;5039902;28;45271;-72
2023/05/18 04:06:22;;;;;;;;;12.00;12.00;;;;;9.87;75.36;101623.59;5037322;28;45274;-80
2023/05/18 04:08:48;;;;;;;;;9.50;9.50;;;;;9.81;75.57;101619.31;5036704;28;45265;-76
2023/05/18 04:11:13;;;;;;;;;11.00;11.00;;;;;9.75;75.40;101617.69;5040103;28;46576;-72
2023/05/18 04:13:38;;;;;;;;;13.50;13.50;;;;;9.78;75.82;101630.78;5037647;28;53169;-77
2023/05/18 04:16:04;;;;;;;;;13.00;13.00;;;;;9.72;76.12;101628.28;5035117;28;45282;-76
2023/05/18 04:18:31;;;;;;;;;13.25;12.25;;;;;9.69;75.94;101633.59;5036380;28;45538;-83
2023/05/18 04:20:56;;;;;;;;;10.00;10.00;;;;;9.70;75.96;101637.94;5036510;28;46377;-84
2023/05/18 04:23:22;;;;;;;;;10.50;10.25;;;;;9.71;75.92;101637.06;5036262;28;45324;-83
2023/05/18 04:25:48;;;;;;;;;11.50;10.75;;;;;9.70;76.15;101632.69;5036178;28;45432;-80
2023/05/18 04:28:13;;;;;;;;;11.00;11.00;;;;;9.67;76.38;101637.13;5034956;28;45345;-80
2023/05/18 04:30:39;;;;;;;;;10.50;10.50;;;;;9.64;76.16;101638.91;5051674;28;47857;-81
2023/05/18 04:33:05;;;;;;;;;13.00;13.00;;;;;9.55;76.32;101633.00;5039410;28;45428;-82
2023/05/18 04:35:31;;;;;;;;;15.00;14.00;;;;;9.62;76.78;101645.97;5039759;28;45304;-79
2023/05/18 04:37:56;;;;;;;;;12.75;12.75;;;;;9.59;76.47;101650.44;5039547;28;45250;-71
2023/05/18 04:40:21;;;;;;;;;12.75;12.75;;;;;9.63;76.52;101641.59;5040883;28;46551;-72
2023/05/18 04:42:47;;;;;;;;;13.50;12.25;;;;;9.63;76.51;101647.69;5041573;28;45291;-71
2023/05/18 04:45:14;;;;;;;;;12.75;12.75;;;;;9.64;76.27;101648.56;5040544;28;45377;-82
2023/05/18 04:47:40;;;;;;;;;15.75;14.75;;;;;9.60;76.52;101645.13;5041400;28;45288;-79
2023/05/18 04:50:05;;;;;;;;;13.50;12.25;;;;;9.66;76.65;101649.41;5039316;28;45580;-70
2023/05/18 04:52:35;;;;;;;;;13.50;13.50;;;;;9.67;76.68;101664.28;5038857;28;45523;-81
2023/05/18 04:55:02;;;;;;;;;11.75;11.75;;;;;9.68;76.62;101655.50;5038880;28;45249;-65
2023/05/18 04:57:27;;;;;;;;;12.00;12.00;;;;;9.65;76.16;101645.06;5039409;28;45233;-72
2023/05/18 04:59:53;;;;;;;;;12.50;12.50;;;;;9.69;76.37;101651.09;5053471;28;48154;-66
2023/05/18 05:02:18;;;;;;;;;12.25;12.25;;;;;9.69;76.37;101653.72;5038364;28;45505;-75
2023/05/18 05:04:44;;;;;;;;;11.00;11.00;;;;;9.74;76.68;101649.25;5037868;28;45323;-67
2023/05/18 05:07:09;;;;;;;;;13.75;13.75;;;;;9.72;76.77;101659.81;5038288;28;45577;-70
2023/05/18 05:09:35;;;;;;;;;11.50;11.50;;;;;9.71;76.42;101657.19;5038744;28;46087;-68
2023/05/18 05:12:00;;;;;;;;;13.00;13.00;;;;;9.71;76.41;101649.31;5037494;28;45737;-68
2023/05/18 05:14:26;;;;;;;;;12.25;12.25;;;;;9.61;76.42;101636.34;5041315;28;45479;-66
2023/05/18 05:16:51;;;;;;;;;12.50;12.50;;;;;9.78;76.27;101653.53;5048385;28;45397;-73
2023/05/18 05:19:16;;;;;;;;;17.00;16.75;;;;;9.88;76.08;101662.13;5050794;28;45605;-63
2023/05/18 05:21:42;;;;;;;;;13.75;13.25;;;;;9.88;75.80;101656.88;5048730;28;45346;-74
2023/05/18 05:24:07;;;;;;;;;12.75;12.75;;;;;9.92;76.29;101658.53;5039498;28;45413;-81
2023/05/18 05:26:33;;;;;;;;;14.00;13.75;;;;;9.78;75.90;101643.03;5039727;28;45280;-75
2023/05/18 05:28:58;;;;;;;;;16.75;16.75;;;;;9.92;75.53;101664.66;5056570;28;48065;-82
2023/05/18 05:31:23;;;;;;;;;12.00;12.00;;;;;9.98;75.52;101662.78;5040593;28;45375;-75
2023/05/18 05:33:49;;;;;;;;;13.25;13.25;;;;;9.99;75.07;101661.88;5039422;28;45361;-68
2023/05/18 05:36:14;;;;;;;;;12.00;12.00;;;;;10.04;75.59;101667.91;5039480;28;45228;-71
2023/05/18 05:38:41;;;;;;;;;14.25;14.25;;;;;9.89;74.65;101635.81;5039425;28;46443;-83
2023/05/18 05:41:06;;;;;;;;;15.25;15.25;;;;;10.07;74.97;101671.38;5039028;28;45480;-76
2023/05/18 05:43:31;;;;;;;;;15.00;14.75;;;;;10.08;74.98;101665.22;5037438;28;45327;-68
2023/05/18 05:45:57;;;;;;;;;13.50;13.50;;;;;10.06;74.60;101666.13;5042232;28;45105;-77
2023/05/18 05:48:22;;;;;;;;;13.50;13.50;;;;;10.09;74.64;101672.19;5042421;28;45983;-68
2023/05/18 05:50:47;;;;;;;;;8.75;8.75;;;;;10.13;74.52;101675.66;5039779;28;45233;-65
2023/05/18 05:53:16;;;;;;;;;16.50;15.25;;;;;10.16;74.68;101675.59;5037433;28;45310;-72
2023/05/18 05:55:42;;;;;;;;;18.75;17.00;;;;;10.22;74.40;101679.84;5037741;28;45369;-75
2023/05/18 05:58:08;;;;;;;;;11.50;11.50;;;;;10.28;73.70;101681.47;5037692;28;46612;-76
2023/05/18 06:00:33;;;;;;;;;16.50;16.50;;;;;10.34;73.79;101673.47;5037141;28;45421;-70
2023/05/18 06:02:59;;;;;;;;;14.00;14.00;;;;;10.36;73.19;101674.28;5053165;28;45438;-84
2023/05/18 06:05:24;;;;;;;;;16.25;16.25;;;;;10.40;73.51;101675.09;5037965;28;45331;-72
2023/05/18 06:07:50;;;;;;;;;12.75;12.75;;;;;10.46;73.10;101670.59;5038019;28;45901;-72
2023/05/18 06:10:15;;;;;;;;;13.25;13.25;;;;;10.49;72.64;101673.16;5038277;28;45462;-82
2023/05/18 06:12:40;;;;;;;;;10.75;10.75;;;;;10.52;72.25;101683.59;5038943;28;46528;-82
2023/05/18 06:15:06;;;;;;;;;11.50;11.50;;;;;10.57;72.28;101685.25;5036935;28;45586;-77
2023/05/18 06:17:32;;;;;;;;;14.75;14.75;;;;;10.61;71.81;101682.53;5039047;28;45366;-72
2023/05/18 06:19:57;;;;;;;;;14.25;14.25;;;;;10.64;71.82;101677.22;5039669;28;45279;-77
2023/05/18 06:22:23;;;;;;;;;14.75;14.75;;;;;10.81;71.71;101682.06;5046553;28;45203;-71
2023/05/18 06:24:49;;;;;;;;;14.25;14.25;;;;;10.86;71.45;101686.34;5046792;28;45522;-73
2023/05/18 06:27:15;;;;;;;;;13.25;13.25;;;;;10.96;70.61;101682.59;5043439;28;45412;-69
2023/05/18 06:29:41;;;;;;;;;15.25;15.25;;;;;10.99;70.63;101679.03;5040952;28;45261;-73
2023/05/18 06:32:06;;;;;;;;;16.00;16.00;;;;;11.08;69.92;101681.44;5040497;28;45474;-68
2023/05/18 06:34:32;;;;;;;;;13.50;13.50;;;;;11.15;69.59;101690.91;5041347;28;45348;-72
2023/05/18 06:36:57;;;;;;;;;12.25;12.25;;;;;11.17;69.36;101688.25;5039351;28;45276;-71
2023/05/18 06:39:23;;;;;;;;;15.25;14.50;;;;;11.23;69.05;101682.84;5040401;28;45329;-73
2023/05/18 06:41:50;;;;;;;;;16.25;16.25;;;;;11.27;69.21;101676.59;5038082;28;45619;-65
2023/05/18 06:44:15;;;;;;;;;14.00;14.00;;;;;11.39;68.75;101680.66;5037621;28;45760;-68
2023/05/18 06:46:41;;;;;;;;;17.00;16.50;;;;;11.50;68.53;101689.16;5037398;28;46084;-68
2023/05/18 06:49:06;;;;;;;;;14.25;13.75;;;;;11.58;68.32;101690.72;5037033;28;45248;-65
2023/05/18 06:51:32;;;;;;;;;16.25;16.25;;;;;11.61;67.83;101698.53;5037589;28;45436;-66
2023/05/18 06:53:57;;;;;;;;;16.00;15.25;;;;;11.58;67.48;101688.06;5036304;28;45765;-69
2023/05/18 06:56:22;;;;;;;;;19.00;17.25;;;;;11.64;67.45;101688.78;5037101;28;45544;-64
2023/05/18 06:58:48;;;;;;;;;14.25;14.25;;;;;11.75;67.31;101688.50;5038093;28;45323;-64
2023/05/18 07:01:13;;;;;;;;;14.25;14.25;;;;;11.86;67.01;101685.56;5038226;28;45190;-65
2023/05/18 07:03:39;;;;;;;;;17.25;17.25;;;;;11.99;66.50;101686.94;5040197;28;45411;-62
2023/05/18 07:06:05;;;;;;;;;15.00;15.00;;;;;12.15;66.38;101688.31;5039785;28;46526;-64
2023/05/18 07:08:32;;;;;;;;;16.75;16.75;;;;;12.23;65.45;101676.66;5039271;28;45414;-63
2023/05/18 07:11:01;;;;;;;;;17.75;17.75;;;;;12.37;65.48;101684.13;5037885;28;45395;-67
2023/05/18 07:13:26;;;;;;;;;16.00;16.00;;;;;12.45;64.06;101669.84;5036590;28;45343;-68
2023/05/18 07:15:51;;;;;;;;;13.50;13.50;;;;;12.53;63.66;101687.19;5035887;28;46985;-62
2023/05/18 07:18:17;;;;;;;;;16.00;16.00;;;;;12.55;63.54;101676.56;5041930;28;45259;-77
2023/05/18 07:20:42;;;;;;;;;16.50;16.25;;;;;12.67;63.40;101686.75;5039508;28;45323;-83
2023/05/18 07:23:08;;;;;;;;;16.50;16.25;;;;;12.67;63.40;101670.06;5038467;28;45541;-80
2023/05/18 07:25:33;;;;;;;;;16.00;16.00;;;;;12.71;63.20;101669.88;5037587;28;45924;-78
2023/05/18 07:27:58;;;;;;;;;13.25;13.25;;;;;12.85;63.07;101684.44;5037531;28;45358;-79
2023/05/18 07:30:25;;;;;;;;;16.75;16.75;;;;;12.97;63.01;101680.53;5038092;28;45413;-80
2023/05/18 07:32:51;;;;;;;;;14.50;14.50;;;;;13.04;62.17;101684.69;5038418;28;45484;-83
2023/05/18 07:35:19;;;;;;;;;14.00;14.00;;;;;13.09;61.98;101684.56;5037430;28;46340;-74
2023/05/18 07:37:44;;;;;;;;;15.00;15.00;;;;;13.19;62.33;101685.09;5037466;28;45506;-72
2023/05/18 07:40:10;;;;;;;;;17.25;17.25;;;;;13.19;61.59;101671.88;5036924;28;45185;-71
2023/05/18 07:42:38;;;;;;;;;16.75;14.25;;;;;13.26;61.54;101673.44;5053066;28;45517;-73
2023/05/18 07:45:03;;;;;;;;;16.25;16.25;;;;;13.21;61.12;101676.22;5036829;28;45626;-69
2023/05/18 07:47:29;;;;;;;;;16.50;16.50;;;;;13.22;61.45;101672.66;5034827;28;45546;-67
2023/05/18 07:49:54;;;;;;;;;10.25;10.25;;;;;13.25;60.79;101675.19;5035380;28;45276;-66
2023/05/18 07:52:19;;;;;;;;;13.50;13.50;;;;;13.22;61.14;101664.75;5037892;28;45340;-78
2023/05/18 07:54:45;;;;;;;;;13.00;13.00;;;;;13.30;60.86;101675.06;5038448;28;46133;-79
2023/05/18 07:57:10;;;;;;;;;18.75;18.00;;;;;13.32;60.82;101667.94;5038580;28;45342;-76
2023/05/18 07:59:36;;;;;;;;;14.50;14.25;;;;;13.40;60.33;101668.53;5037222;28;45301;-80
2023/05/18 08:02:01;;;;;;;;;16.50;16.50;;;;;13.47;60.40;101673.66;5037167;28;45323;-81
2023/05/18 08:04:27;;;;;;;;;15.75;15.75;;;;;13.53;59.90;101662.84;5035180;28;46837;-83
2023/05/18 08:06:54;;;;;;;;;15.00;15.00;;;;;13.63;59.48;101666.03;5035816;28;45429;-73
2023/05/18 08:09:21;;;;;;;;;12.25;12.25;;;;;13.74;59.68;101669.13;5036507;28;45330;-77
2023/05/18 08:11:46;;;;;;;;;11.75;11.75;;;;;13.82;58.91;101672.41;5036678;28;45631;-80
2023/05/18 08:14:12;;;;;;;;;13.25;13.25;;;;;13.78;58.38;101659.31;5036726;28;45543;-81
2023/05/18 08:16:37;;;;;;;;;16.25;16.00;;;;;13.81;57.79;101664.50;5037382;28;45364;-74
2023/05/18 08:19:02;;;;;;;;;16.50;15.75;;;;;13.73;58.35;101654.19;5035783;28;45285;-77
2023/05/18 08:21:29;;;;;;;;;14.50;14.50;;;;;13.85;57.99;101663.47;5036841;28;45183;-78
2023/05/18 08:23:54;;;;;;;;;15.25;15.25;;;;;13.85;58.25;101667.00;5034613;28;47060;-82
2023/05/18 08:26:20;;;;;;;;;12.50;12.50;;;;;13.92;58.12;101661.47;5036716;28;45272;-80
2023/05/18 08:28:47;;;;;;;;;12.75;11.50;;;;;14.03;57.87;101664.59;5036320;28;45349;-75
2023/05/18 08:31:13;;;;;;;;;18.00;17.00;;;;;14.00;57.39;101640.88;5036643;28;45348;-79
2023/05/18 08:33:39;;;;;;;;;11.75;11.75;;;;;14.03;56.82;101649.56;5037379;28;46355;-83
2023/05/18 08:36:05;;;;;;;;;15.25;15.25;;;;;14.11;56.99;101658.97;5037591;28;45217;-74
2023/05/18 08:38:30;;;;;;;;;13.50;13.25;;;;;14.09;56.66;101648.47;5035523;28;45522;-75
2023/05/18 08:41:14;;;;;;;;;14.50;14.50;;;;;14.17;55.92;101653.47;5035270;28;45134;-76
2023/05/18 08:43:44;;;;;;;;;12.00;12.00;;;;;14.23;56.22;101649.72;5035740;28;46305;-72
2023/05/18 08:46:27;;;;;;;;;15.75;15.00;;;;;14.29;54.98;101655.63;5035163;28;45441;-71
2023/05/18 08:48:54;;;;;;;;;14.00;13.75;;;;;14.31;54.54;101659.13;5035180;28;45348;-69
2023/05/18 08:51:20;;;;;;;;;13.50;13.50;;;;;14.34;55.33;101655.47;5035985;28;45489;-73
2023/05/18 08:53:52;;;;;;;;;10.25;10.25;;;;;14.40;55.21;101652.59;5035102;28;47290;-66
2023/05/18 08:56:27;;;;;;;;;14.00;14.00;;;;;14.41;55.04;101653.47;5035313;28;45304;-69
2023/05/18 08:58:55;;;;;;;;;14.25;14.25;;;;;14.47;54.17;101661.16;5034167;28;45489;-73
2023/05/18 09:01:26;;;;;;;;;15.50;15.50;;;;;14.50;53.52;101652.22;5036622;28;45227;-71
2023/05/18 09:03:52;;;;;;;;;20.75;19.50;;;;;14.51;53.23;101646.00;5050884;28;45401;-82
2023/05/18 09:06:19;;;;;;;;;21.00;21.00;;;;;14.51;52.71;101651.28;5036362;28;45454;-79
2023/05/18 09:08:45;;;;;;;;;14.00;14.00;;;;;14.56;52.93;101646.69;5036156;28;45371;-63
2023/05/18 09:11:12;;;;;;;;;13.00;13.00;;;;;14.60;53.03;101646.50;5036989;28;45427;-66
2023/05/18 09:13:37;;;;;;;;;15.50;15.50;;;;;14.67;53.48;101648.91;5037465;28;46279;-71
2023/05/18 09:16:03;;;;;;;;;14.25;14.25;;;;;14.81;52.97;101648.34;5036284;28;45315;-67
2023/05/18 09:18:28;;;;;;;;;18.00;18.00;;;;;14.74;52.81;101623.94;5037926;28;45377;-66
2023/05/18 09:20:54;;;;;;;;;17.00;17.00;;;;;14.99;52.84;101652.03;5037291;28;45364;-72
2023/05/18 09:23:20;;;;;;;;;13.00;13.00;;;;;15.06;52.25;101656.16;5037678;28;46245;-68
2023/05/18 09:25:48;;;;;;;;;17.25;17.00;;;;;15.15;52.65;101652.28;5037342;28;45324;-66
2023/05/18 09:28:25;;;;;;;;;15.50;14.00;;;;;15.26;51.98;101650.03;5038075;28;45215;-65
2023/05/18 09:30:52;;;;;;;;;11.50;11.50;;;;;15.33;51.08;101647.94;5037758;28;45350;-67
2023/05/18 09:33:20;;;;;;;;;19.25;19.25;;;;;15.46;51.57;101650.94;5037275;28;47413;-65
2023/05/18 09:35:46;;;;;;;;;16.25;16.25;;;;;15.56;51.59;101644.31;5037693;28;45185;-66
2023/05/18 09:38:20;;;;;;;;;21.25;21.25;;;;;15.68;50.27;101642.91;5037443;28;45397;-64
2023/05/18 09:40:47;;;;;;;;;13.75;13.75;;;;;15.74;50.85;101636.44;5039537;28;45243;-73
2023/05/18 09:43:13;;;;;;;;;15.75;15.75;;;;;15.79;50.42;101645.06;5037020;28;45672;-75
2023/05/18 09:45:47;;;;;;;;;33.75;32.25;;;;;15.85;50.26;101650.09;5038353;28;45353;-75
2023/05/18 09:48:13;;;;;;;;;15.50;15.50;;;;;15.91;49.73;101639.25;5039550;28;45382;-77
2023/05/18 09:50:38;;;;;;;;;17.00;17.00;;;;;15.98;49.60;101641.63;5040418;28;45628;-70
2023/05/18 09:53:09;;;;;;;;;14.00;14.00;;;;;16.09;48.21;101630.50;5041096;28;46134;-73
2023/05/18 09:55:45;;;;;;;;;20.25;20.25;;;;;16.16;48.66;101631.94;5039945;28;45310;-72
2023/05/18 09:58:11;;;;;;;;;18.00;18.00;;;;;16.20;46.92;101631.72;5040698;28;45326;-71
2023/05/18 10:00:41;;;;;;;;;22.50;22.50;;;;;16.24;47.26;101635.09;5039330;28;45393;-74
2023/05/18 10:03:22;;;;;;;;;15.50;15.50;;;;;16.34;48.28;101640.84;5038655;28;45456;-69
2023/05/18 10:05:48;;;;;;;;;14.75;14.75;;;;;16.41;47.85;101634.28;5036827;28;45705;-70
2023/05/18 10:08:14;;;;;;;;;14.50;14.50;;;;;16.52;47.60;101640.88;5054017;28;45365;-78
2023/05/18 10:10:45;;;;;;;;;18.25;16.75;;;;;16.57;46.94;101626.44;5053363;28;45310;-76
2023/05/18 10:13:16;;;;;;;;;14.25;13.50;;;;;16.62;46.03;101623.56;5038596;28;45407;-80
2023/05/18 10:15:47;;;;;;;;;16.25;16.00;;;;;16.67;45.96;101637.47;5038444;28;45546;-81
2023/05/18 10:18:18;;;;;;;;;18.00;18.00;;;;;16.69;45.04;101624.97;5041169;28;45332;-70
2023/05/18 10:20:46;;;;;;;;;16.50;16.50;;;;;16.77;45.31;101617.47;5043883;28;45374;-76
2023/05/18 10:23:12;;;;;;;;;18.75;18.75;;;;;16.88;45.32;101624.94;5037994;28;46202;-73
2023/05/18 10:25:41;;;;;;;;;17.00;17.00;;;;;16.94;45.07;101613.09;5038036;28;45267;-74
2023/05/18 10:28:09;;;;;;;;;18.00;16.75;;;;;16.91;44.30;101606.16;5039082;28;45392;-75
2023/05/18 10:30:36;;;;;;;;;18.50;17.75;;;;;16.99;44.10;101618.25;5040471;28;45166;-75
2023/05/18 10:33:01;;;;;;;;;17.50;16.75;;;;;17.01;41.42;101617.25;5039414;28;45448;-79
2023/05/18 10:35:27;;;;;;;;;15.00;15.00;;;;;16.97;42.14;101623.66;5040211;28;45450;-78
2023/05/18 10:37:54;;;;;;;;;15.00;15.00;;;;;16.98;42.21;101622.72;5041289;28;45270;-70
2023/05/18 10:40:23;;;;;;;;;14.25;14.25;;;;;17.04;42.09;101621.53;5039970;28;45462;-70
2023/05/18 10:42:50;;;;;;;;;17.25;17.25;;;;;16.96;40.96;101605.06;5041767;28;46372;-75
2023/05/18 10:45:17;;;;;;;;;19.75;18.25;;;;;16.97;41.22;101615.69;5044620;28;45326;-75
2023/05/18 10:47:43;;;;;;;;;14.50;14.50;;;;;16.93;41.54;101614.03;5048632;28;44763;-70
2023/05/18 10:50:09;;;;;;;;;19.00;19.00;;;;;16.86;42.31;101594.91;5046153;28;45281;-73
2023/05/18 10:52:36;;;;;;;;;17.50;17.50;;;;;17.05;43.01;101610.81;5040969;28;46516;-65
2023/05/18 10:55:03;;;;;;;;;16.00;16.00;;;;;17.05;42.38;101605.50;5039237;28;45418;-70
2023/05/18 10:57:52;;;;;;;;;21.00;20.25;;;;;17.15;42.43;101605.03;5038105;28;45397;-71
2023/05/18 11:00:19;;;;;;;;;17.25;17.25;;;;;17.22;42.51;101606.44;5039513;28;45174;-73
2023/05/18 11:02:45;;;;;;;;;21.00;19.00;;;;;17.29;41.04;101596.31;5038747;28;46218;-76
2023/05/18 11:05:11;;;;;;;;;16.25;16.00;;;;;17.36;41.28;101601.25;5039262;28;45867;-78
2023/05/18 11:07:43;;;;;;;;;14.75;14.75;;;;;17.27;40.46;101600.84;5039410;28;45299;-69
2023/05/18 11:10:10;;;;;;;;;15.00;15.00;;;;;17.17;41.30;101595.19;5039827;28;45237;-77
2023/05/18 11:12:39;;;;;;;;;16.00;16.00;;;;;17.15;40.43;101599.72;5036651;28;46834;-80
2023/05/18 11:15:05;;;;;;;;;11.75;11.75;;;;;17.14;41.43;101611.28;5037110;28;45413;-73